MV Magnolia — WDH4902 — position and weather

sailwx.info

Track history (hours):
 
Tides and Currents Weather Stations Pressure Air Temp Water Temp Dewpoint Dewpoint Depression Visibility Wind Speed Wind Dir Waves Ship Positions

MV Magnolia

Owner: MV Magnolia, LLC, destrehan, LA. More information available from US FCC via Universal Licensing System and Coast Guard Vessel Documentation Center.

Last reported at 2017-Dec-16 01:51 UTC. Time now 2017-Dec-16 05:25 UTC.
Position N 30°03' W 093°44'.

Length 21 m; draft 2.6 m.

Type: Towing. MMSI: 367622520.

Date/timePositionNaut miles runAvg speedWind from/ knotsBaromVisibWave heightAir tempDewpointWater temp
2017-Dec-16 01:51N 30°03' W 093°44'2 5.2
2017-Dec-16 01:28N 30°03' W 093°42'3 6.2
2017-Dec-16 01:00N 30°04' W 093°39'3 6.1
2017-Dec-16 00:31N 30°04' W 093°35'3 5.9
2017-Dec-16 00:01N 30°04' W 093°32'3 5.9
2017-Dec-15 23:30N 30°04' W 093°28'3 5.9
2017-Dec-15 23:00N 30°04' W 093°25'3 5.7
2017-Dec-15 22:30N 30°04' W 093°21'0 0.8
2017-Dec-15 21:59N 30°04' W 093°22'1 1.1
2017-Dec-15 21:30N 30°04' W 093°21'3 5.3
2017-Dec-15 21:00N 30°04' W 093°24'2 4.8
2017-Dec-15 20:30N 30°04' W 093°27'3 6.2
2017-Dec-15 20:00N 30°04' W 093°31'3 6.2
2017-Dec-15 19:28N 30°04' W 093°35'79 3.1
2017-Dec-14 18:25N 29°44' W 095°03'3 6.1
2017-Dec-14 17:56N 29°46' W 095°05'1 0.5
2017-Dec-14 15:50N 29°47' W 095°04'0 0.4
2017-Dec-14 15:00N 29°47' W 095°05'0 0.0
2017-Dec-14 14:30N 29°47' W 095°04'0 0.0
2017-Dec-14 13:59N 29°47' W 095°04'0 0.1
2017-Dec-14 13:28N 29°47' W 095°04'0 0.0
2017-Dec-14 12:59N 29°47' W 095°04'0 0.5
2017-Dec-14 12:05N 29°47' W 095°04'0 1.9
2017-Dec-14 11:52N 29°47' W 095°04'0 0.1
2017-Dec-14 08:25N 29°47' W 095°04'0 0.4
2017-Dec-14 07:48N 29°47' W 095°04'0 0.1
2017-Dec-14 07:15N 29°47' W 095°04'0 0.7
2017-Dec-14 06:52N 29°47' W 095°04'0 0.2
2017-Dec-14 06:17N 29°47' W 095°04'0 0.4
2017-Dec-14 05:30N 29°47' W 095°04'2 4.2
2017-Dec-14 05:00N 29°45' W 095°04'3 5.4
2017-Dec-14 04:30N 29°43' W 095°01'3 5.1
2017-Dec-14 04:00N 29°41' W 094°59'3 5.9
2017-Dec-14 03:30N 29°39' W 094°58'3 6.0
2017-Dec-14 03:00N 29°36' W 094°57'3 6.2
2017-Dec-14 02:30N 29°33' W 094°55'3 6.2
2017-Dec-14 02:00N 29°31' W 094°53'3 6.3
2017-Dec-14 01:30N 29°28' W 094°51'50 3.8
2017-Dec-13 12:18N 29°49' W 093°59'5 3.2
2017-Dec-13 10:38N 29°53' W 093°55'1 5.5
2017-Dec-13 10:26N 29°54' W 093°54'5 1.2
2017-Dec-13 06:04N 29°58' W 093°51'3 6.4
2017-Dec-13 05:37N 29°59' W 093°48'1 7.6
2017-Dec-13 05:30N 29°60' W 093°47'4 7.2
2017-Dec-13 05:00N 30°02' W 093°44'3 6.8
2017-Dec-13 04:30N 30°04' W 093°40'3 6.9
2017-Dec-13 04:01N 30°04' W 093°36'3 6.4
2017-Dec-13 03:31N 30°04' W 093°33'3 6.3
2017-Dec-13 03:01N 30°04' W 093°29'3 6.4
2017-Dec-13 02:31N 30°04' W 093°25'3 6.2
2017-Dec-13 02:01N 30°04' W 093°22'0 0.5
2017-Dec-13 01:29N 30°04' W 093°21'1 2.4
2017-Dec-13 00:58N 30°04' W 093°20'1 1.7
2017-Dec-13 00:28N 30°05' W 093°20'0 0.2
2017-Dec-13 00:00N 30°05' W 093°20'2 4.7
2017-Dec-12 23:30N 30°04' W 093°22'0 0.2
2017-Dec-12 22:59N 30°04' W 093°22'0 0.6
2017-Dec-12 22:30N 30°04' W 093°23'2 3.7
2017-Dec-12 22:00N 30°04' W 093°25'2 4.9
2017-Dec-12 21:30N 30°04' W 093°27'2 5.0
2017-Dec-12 21:00N 30°04' W 093°30'2 5.0
2017-Dec-12 20:30N 30°04' W 093°33'0 0.3
2017-Dec-12 20:00N 30°04' W 093°33'2 4.7
2017-Dec-12 19:30N 30°04' W 093°36'51 4.4
2017-Dec-12 07:49N 29°35' W 094°25'2 5.6
2017-Dec-12 07:29N 29°34' W 094°27'5 5.5
2017-Dec-12 06:34N 29°31' W 094°31'2 4.9
2017-Dec-12 06:12N 29°30' W 094°33'1 6.0
2017-Dec-12 05:59N 29°30' W 094°34'3 5.9
2017-Dec-12 05:29N 29°28' W 094°38'8 6.0
2017-Dec-12 04:10N 29°24' W 094°45'1 6.4
2017-Dec-12 04:00N 29°23' W 094°46'2 4.3
2017-Dec-12 03:27N 29°23' W 094°49'3 6.2
2017-Dec-12 02:59N 29°26' W 094°50'4 6.5
2017-Dec-12 02:22N 29°30' W 094°52'3 6.5
2017-Dec-12 01:59N 29°32' W 094°54'3 6.2
2017-Dec-12 01:30N 29°34' W 094°55'3 5.9
2017-Dec-12 01:01N 29°37' W 094°57'3 6.3
2017-Dec-12 00:31N 29°40' W 094°58'3 6.2
2017-Dec-11 23:59N 29°42' W 095°01'3 5.7
2017-Dec-11 23:30N 29°44' W 095°03'3 4.4
2017-Dec-11 22:51N 29°45' W 095°06'2 6.4
2017-Dec-11 22:30N 29°44' W 095°09'1 1.1
2017-Dec-11 21:14N 29°45' W 095°10'1 4.4
2017-Dec-11 20:59N 29°44' W 095°09'3 5.7
2017-Dec-11 20:30N 29°45' W 095°06'3 5.3
2017-Dec-11 20:00N 29°47' W 095°04'0 0.1
2017-Dec-11 17:20N 29°47' W 095°04'1 1.4
2017-Dec-11 16:54N 29°47' W 095°05'1 1.4
2017-Dec-11 16:09N 29°46' W 095°06'0 2.2
2017-Dec-11 15:59N 29°46' W 095°05'2 0.7
2017-Dec-11 13:14N 29°47' W 095°04'0 0.0
2017-Dec-11 12:47N 29°47' W 095°04'0 0.0
2017-Dec-11 12:29N 29°47' W 095°04'0 0.0
2017-Dec-11 11:53N 29°47' W 095°04'0 0.0
2017-Dec-11 11:05N 29°47' W 095°04'0 0.0
2017-Dec-11 10:44N 29°47' W 095°04'0 0.0
2017-Dec-11 10:14N 29°47' W 095°04'0 0.0
2017-Dec-11 09:44N 29°47' W 095°04'0 0.0
2017-Dec-11 09:14N 29°47' W 095°04'0 0.0
2017-Dec-11 08:44N 29°47' W 095°04'0 0.0
2017-Dec-11 08:20N 29°47' W 095°04'0 0.0
2017-Dec-11 07:56N 29°47' W 095°04'0 0.0
2017-Dec-11 07:18N 29°47' W 095°04'0 0.0
2017-Dec-11 06:59N 29°47' W 095°04'0 0.0
2017-Dec-11 06:23N 29°47' W 095°04'0 0.0
2017-Dec-11 05:59N 29°47' W 095°04'0 0.0
2017-Dec-11 05:29N 29°47' W 095°04'0 0.0
2017-Dec-11 04:20N 29°47' W 095°04'0 0.0
2017-Dec-11 03:56N 29°47' W 095°04'0 0.0
2017-Dec-11 02:20N 29°47' W 095°04'1 2.4
2017-Dec-11 01:59N 29°47' W 095°05'2 3.5
2017-Dec-11 01:30N 29°46' W 095°06'0 0.0
2017-Dec-11 00:48N 29°46' W 095°06'0 0.0
2017-Dec-11 00:30N 29°46' W 095°06'0 0.0
2017-Dec-11 00:00N 29°46' W 095°06'0 0.0
2017-Dec-10 23:30N 29°46' W 095°06'0 0.0
2017-Dec-10 23:00N 29°46' W 095°06'0 0.0
2017-Dec-10 22:27N 29°46' W 095°06'0 0.4
2017-Dec-10 21:56N 29°46' W 095°07'1 0.5
2017-Dec-10 20:05N 29°46' W 095°06'0 3.7
2017-Dec-10 20:00N 29°46' W 095°05'1 0.6
2017-Dec-10 19:00N 29°45' W 095°06'0 0.0
2017-Dec-10 18:27N 29°45' W 095°06'0 0.0
2017-Dec-10 17:48N 29°45' W 095°06'0 1.2
2017-Dec-10 17:30N 29°46' W 095°05'0 0.2
2017-Dec-10 15:20N 29°46' W 095°06'0 0.2
2017-Dec-10 14:58N 29°46' W 095°05'0 0.1
2017-Dec-10 14:30N 29°46' W 095°05'2 3.8
2017-Dec-10 14:00N 29°45' W 095°04'2 4.7
2017-Dec-10 13:30N 29°44' W 095°01'2 4.0
2017-Dec-10 13:00N 29°42' W 095°00'2 3.7
2017-Dec-10 12:30N 29°41' W 094°59'2 4.4
2017-Dec-10 12:00N 29°39' W 094°58'2 4.8
2017-Dec-10 11:30N 29°36' W 094°57'2 4.8
2017-Dec-10 11:00N 29°34' W 094°55'2 4.7
2017-Dec-10 10:30N 29°32' W 094°54'2 4.8
2017-Dec-10 10:00N 29°30' W 094°52'3 4.9
2017-Dec-10 09:30N 29°28' W 094°51'2 4.9
2017-Dec-10 09:00N 29°26' W 094°50'2 5.0
2017-Dec-10 08:30N 29°24' W 094°49'7 0.2
2017-Dec-08 11:49N 29°30' W 094°52'2 6.7
2017-Dec-08 11:30N 29°32' W 094°53'3 6.7
2017-Dec-08 10:59N 29°34' W 094°56'3 6.2
2017-Dec-08 10:30N 29°37' W 094°57'3 6.0
2017-Dec-08 10:00N 29°40' W 094°58'2 3.7
2017-Dec-08 09:30N 29°41' W 095°00'0 0.2
2017-Dec-08 08:58N 29°41' W 095°00'0 0.0
2017-Dec-08 08:25N 29°41' W 095°00'0 0.0
2017-Dec-08 07:58N 29°41' W 095°00'0 0.0
2017-Dec-08 07:28N 29°41' W 095°00'0 0.0
2017-Dec-08 06:58N 29°41' W 095°00'0 0.0
2017-Dec-08 06:28N 29°41' W 095°00'0 0.0
2017-Dec-08 05:58N 29°41' W 095°00'0 0.0
2017-Dec-08 05:28N 29°41' W 095°00'0 0.6
2017-Dec-08 05:00N 29°41' W 094°60'2 4.0
2017-Dec-08 04:30N 29°43' W 095°01'4 6.5
2017-Dec-08 03:54N 29°45' W 095°04'1 3.5
2017-Dec-08 03:29N 29°47' W 095°04'0 0.0
2017-Dec-08 02:59N 29°47' W 095°04'0 0.0
2017-Dec-08 01:22N 29°47' W 095°04'0 0.0
2017-Dec-08 00:58N 29°47' W 095°04'0 0.0
2017-Dec-07 23:37N 29°47' W 095°04'0 0.6
2017-Dec-07 22:53N 29°47' W 095°04'1 2.1
2017-Dec-07 22:28N 29°47' W 095°05'2 2.5
2017-Dec-07 21:47N 29°46' W 095°06'1 3.4
2017-Dec-07 21:30N 29°46' W 095°05'2 3.2
2017-Dec-07 20:54N 29°47' W 095°04'1 1.4
2017-Dec-07 20:30N 29°47' W 095°05'1 1.9
2017-Dec-07 20:00N 29°46' W 095°05'1 2.0
2017-Dec-07 19:26N 29°47' W 095°05'1 2.5
2017-Dec-07 18:58N 29°46' W 095°05'1 0.7
2017-Dec-07 17:52N 29°46' W 095°06'1 2.2
2017-Dec-07 17:30N 29°46' W 095°05'1 2.0
2017-Dec-07 16:57N 29°47' W 095°05'2 2.9
2017-Dec-07 16:24N 29°45' W 095°04'2 4.8
2017-Dec-07 16:01N 29°44' W 095°03'2 4.2
2017-Dec-07 15:29N 29°42' W 095°01'2 4.8
2017-Dec-07 15:00N 29°41' W 094°59'3 5.2
2017-Dec-07 14:30N 29°38' W 094°58'3 5.3
2017-Dec-07 14:01N 29°36' W 094°57'2 5.0
2017-Dec-07 13:31N 29°34' W 094°55'2 4.9
2017-Dec-07 13:01N 29°32' W 094°54'2 4.8
2017-Dec-07 12:30N 29°30' W 094°52'3 4.9
2017-Dec-07 11:52N 29°27' W 094°50'2 4.7
2017-Dec-07 11:22N 29°25' W 094°49'  
Track history (hours):
 
Tides and Currents Weather Stations Pressure Air Temp Water Temp Dewpoint Dewpoint Depression Visibility Wind Speed Wind Dir Waves Ship Positions

MV Magnolia

Owner: MV Magnolia, LLC, destrehan, LA. More information available from US FCC via Universal Licensing System and Coast Guard Vessel Documentation Center.

Last reported at 2017-Dec-16 01:51 UTC. Time now 2017-Dec-16 05:25 UTC.
Position N 30°03' W 093°44'.

Length 21 m; draft 2.6 m.

Type: Towing. MMSI: 367622520.

Date/timePositionNaut miles runAvg speedWind from/ knotsBaromVisibWave heightAir tempDewpointWater temp
2017-Dec-16 01:51N 30°03' W 093°44'2 5.2
2017-Dec-16 01:28N 30°03' W 093°42'3 6.2
2017-Dec-16 01:00N 30°04' W 093°39'3 6.1
2017-Dec-16 00:31N 30°04' W 093°35'3 5.9
2017-Dec-16 00:01N 30°04' W 093°32'3 5.9
2017-Dec-15 23:30N 30°04' W 093°28'3 5.9
2017-Dec-15 23:00N 30°04' W 093°25'3 5.7
2017-Dec-15 22:30N 30°04' W 093°21'0 0.8
2017-Dec-15 21:59N 30°04' W 093°22'1 1.1
2017-Dec-15 21:30N 30°04' W 093°21'3 5.3
2017-Dec-15 21:00N 30°04' W 093°24'2 4.8
2017-Dec-15 20:30N 30°04' W 093°27'3 6.2
2017-Dec-15 20:00N 30°04' W 093°31'3 6.2
2017-Dec-15 19:28N 30°04' W 093°35'79 3.1
2017-Dec-14 18:25N 29°44' W 095°03'3 6.1
2017-Dec-14 17:56N 29°46' W 095°05'1 0.5
2017-Dec-14 15:50N 29°47' W 095°04'0 0.4
2017-Dec-14 15:00N 29°47' W 095°05'0 0.0
2017-Dec-14 14:30N 29°47' W 095°04'0 0.0
2017-Dec-14 13:59N 29°47' W 095°04'0 0.1
2017-Dec-14 13:28N 29°47' W 095°04'0 0.0
2017-Dec-14 12:59N 29°47' W 095°04'0 0.5
2017-Dec-14 12:05N 29°47' W 095°04'0 1.9
2017-Dec-14 11:52N 29°47' W 095°04'0 0.1
2017-Dec-14 08:25N 29°47' W 095°04'0 0.4
2017-Dec-14 07:48N 29°47' W 095°04'0 0.1
2017-Dec-14 07:15N 29°47' W 095°04'0 0.7
2017-Dec-14 06:52N 29°47' W 095°04'0 0.2
2017-Dec-14 06:17N 29°47' W 095°04'0 0.4
2017-Dec-14 05:30N 29°47' W 095°04'2 4.2
2017-Dec-14 05:00N 29°45' W 095°04'3 5.4
2017-Dec-14 04:30N 29°43' W 095°01'3 5.1
2017-Dec-14 04:00N 29°41' W 094°59'3 5.9
2017-Dec-14 03:30N 29°39' W 094°58'3 6.0
2017-Dec-14 03:00N 29°36' W 094°57'3 6.2
2017-Dec-14 02:30N 29°33' W 094°55'3 6.2
2017-Dec-14 02:00N 29°31' W 094°53'3 6.3
2017-Dec-14 01:30N 29°28' W 094°51'50 3.8
2017-Dec-13 12:18N 29°49' W 093°59'5 3.2
2017-Dec-13 10:38N 29°53' W 093°55'1 5.5
2017-Dec-13 10:26N 29°54' W 093°54'5 1.2
2017-Dec-13 06:04N 29°58' W 093°51'3 6.4
2017-Dec-13 05:37N 29°59' W 093°48'1 7.6
2017-Dec-13 05:30N 29°60' W 093°47'4 7.2
2017-Dec-13 05:00N 30°02' W 093°44'3 6.8
2017-Dec-13 04:30N 30°04' W 093°40'3 6.9
2017-Dec-13 04:01N 30°04' W 093°36'3 6.4
2017-Dec-13 03:31N 30°04' W 093°33'3 6.3
2017-Dec-13 03:01N 30°04' W 093°29'3 6.4
2017-Dec-13 02:31N 30°04' W 093°25'3 6.2
2017-Dec-13 02:01N 30°04' W 093°22'0 0.5
2017-Dec-13 01:29N 30°04' W 093°21'1 2.4
2017-Dec-13 00:58N 30°04' W 093°20'1 1.7
2017-Dec-13 00:28N 30°05' W 093°20'0 0.2
2017-Dec-13 00:00N 30°05' W 093°20'2 4.7
2017-Dec-12 23:30N 30°04' W 093°22'0 0.2
2017-Dec-12 22:59N 30°04' W 093°22'0 0.6
2017-Dec-12 22:30N 30°04' W 093°23'2 3.7
2017-Dec-12 22:00N 30°04' W 093°25'2 4.9
2017-Dec-12 21:30N 30°04' W 093°27'2 5.0
2017-Dec-12 21:00N 30°04' W 093°30'2 5.0
2017-Dec-12 20:30N 30°04' W 093°33'0 0.3
2017-Dec-12 20:00N 30°04' W 093°33'2 4.7
2017-Dec-12 19:30N 30°04' W 093°36'51 4.4
2017-Dec-12 07:49N 29°35' W 094°25'2 5.6
2017-Dec-12 07:29N 29°34' W 094°27'5 5.5
2017-Dec-12 06:34N 29°31' W 094°31'2 4.9
2017-Dec-12 06:12N 29°30' W 094°33'1 6.0
2017-Dec-12 05:59N 29°30' W 094°34'3 5.9
2017-Dec-12 05:29N 29°28' W 094°38'8 6.0
2017-Dec-12 04:10N 29°24' W 094°45'1 6.4
2017-Dec-12 04:00N 29°23' W 094°46'2 4.3
2017-Dec-12 03:27N 29°23' W 094°49'3 6.2
2017-Dec-12 02:59N 29°26' W 094°50'4 6.5
2017-Dec-12 02:22N 29°30' W 094°52'3 6.5
2017-Dec-12 01:59N 29°32' W 094°54'3 6.2
2017-Dec-12 01:30N 29°34' W 094°55'3 5.9
2017-Dec-12 01:01N 29°37' W 094°57'3 6.3
2017-Dec-12 00:31N 29°40' W 094°58'3 6.2
2017-Dec-11 23:59N 29°42' W 095°01'3 5.7
2017-Dec-11 23:30N 29°44' W 095°03'3 4.4
2017-Dec-11 22:51N 29°45' W 095°06'2 6.4
2017-Dec-11 22:30N 29°44' W 095°09'1 1.1
2017-Dec-11 21:14N 29°45' W 095°10'1 4.4
2017-Dec-11 20:59N 29°44' W 095°09'3 5.7
2017-Dec-11 20:30N 29°45' W 095°06'3 5.3
2017-Dec-11 20:00N 29°47' W 095°04'0 0.1
2017-Dec-11 17:20N 29°47' W 095°04'1 1.4
2017-Dec-11 16:54N 29°47' W 095°05'1 1.4
2017-Dec-11 16:09N 29°46' W 095°06'0 2.2
2017-Dec-11 15:59N 29°46' W 095°05'2 0.7
2017-Dec-11 13:14N 29°47' W 095°04'0 0.0
2017-Dec-11 12:47N 29°47' W 095°04'0 0.0
2017-Dec-11 12:29N 29°47' W 095°04'0 0.0
2017-Dec-11 11:53N 29°47' W 095°04'0 0.0
2017-Dec-11 11:05N 29°47' W 095°04'0 0.0
2017-Dec-11 10:44N 29°47' W 095°04'0 0.0
2017-Dec-11 10:14N 29°47' W 095°04'0 0.0
2017-Dec-11 09:44N 29°47' W 095°04'0 0.0
2017-Dec-11 09:14N 29°47' W 095°04'0 0.0
2017-Dec-11 08:44N 29°47' W 095°04'0 0.0
2017-Dec-11 08:20N 29°47' W 095°04'0 0.0
2017-Dec-11 07:56N 29°47' W 095°04'0 0.0
2017-Dec-11 07:18N 29°47' W 095°04'0 0.0
2017-Dec-11 06:59N 29°47' W 095°04'0 0.0
2017-Dec-11 06:23N 29°47' W 095°04'0 0.0
2017-Dec-11 05:59N 29°47' W 095°04'0 0.0
2017-Dec-11 05:29N 29°47' W 095°04'0 0.0
2017-Dec-11 04:20N 29°47' W 095°04'0 0.0
2017-Dec-11 03:56N 29°47' W 095°04'0 0.0
2017-Dec-11 02:20N 29°47' W 095°04'1 2.4
2017-Dec-11 01:59N 29°47' W 095°05'2 3.5
2017-Dec-11 01:30N 29°46' W 095°06'0 0.0
2017-Dec-11 00:48N 29°46' W 095°06'0 0.0
2017-Dec-11 00:30N 29°46' W 095°06'0 0.0
2017-Dec-11 00:00N 29°46' W 095°06'0 0.0
2017-Dec-10 23:30N 29°46' W 095°06'0 0.0
2017-Dec-10 23:00N 29°46' W 095°06'0 0.0
2017-Dec-10 22:27N 29°46' W 095°06'0 0.4
2017-Dec-10 21:56N 29°46' W 095°07'1 0.5
2017-Dec-10 20:05N 29°46' W 095°06'0 3.7
2017-Dec-10 20:00N 29°46' W 095°05'1 0.6
2017-Dec-10 19:00N 29°45' W 095°06'0 0.0
2017-Dec-10 18:27N 29°45' W 095°06'0 0.0
2017-Dec-10 17:48N 29°45' W 095°06'0 1.2
2017-Dec-10 17:30N 29°46' W 095°05'0 0.2
2017-Dec-10 15:20N 29°46' W 095°06'0 0.2
2017-Dec-10 14:58N 29°46' W 095°05'0 0.1
2017-Dec-10 14:30N 29°46' W 095°05'2 3.8
2017-Dec-10 14:00N 29°45' W 095°04'2 4.7
2017-Dec-10 13:30N 29°44' W 095°01'2 4.0
2017-Dec-10 13:00N 29°42' W 095°00'2 3.7
2017-Dec-10 12:30N 29°41' W 094°59'2 4.4
2017-Dec-10 12:00N 29°39' W 094°58'2 4.8
2017-Dec-10 11:30N 29°36' W 094°57'2 4.8
2017-Dec-10 11:00N 29°34' W 094°55'2 4.7
2017-Dec-10 10:30N 29°32' W 094°54'2 4.8
2017-Dec-10 10:00N 29°30' W 094°52'3 4.9
2017-Dec-10 09:30N 29°28' W 094°51'2 4.9
2017-Dec-10 09:00N 29°26' W 094°50'2 5.0
2017-Dec-10 08:30N 29°24' W 094°49'7 0.2
2017-Dec-08 11:49N 29°30' W 094°52'2 6.7
2017-Dec-08 11:30N 29°32' W 094°53'3 6.7
2017-Dec-08 10:59N 29°34' W 094°56'3 6.2
2017-Dec-08 10:30N 29°37' W 094°57'3 6.0
2017-Dec-08 10:00N 29°40' W 094°58'2 3.7
2017-Dec-08 09:30N 29°41' W 095°00'0 0.2
2017-Dec-08 08:58N 29°41' W 095°00'0 0.0
2017-Dec-08 08:25N 29°41' W 095°00'0 0.0
2017-Dec-08 07:58N 29°41' W 095°00'0 0.0
2017-Dec-08 07:28N 29°41' W 095°00'0 0.0
2017-Dec-08 06:58N 29°41' W 095°00'0 0.0
2017-Dec-08 06:28N 29°41' W 095°00'0 0.0
2017-Dec-08 05:58N 29°41' W 095°00'0 0.0
2017-Dec-08 05:28N 29°41' W 095°00'0 0.6
2017-Dec-08 05:00N 29°41' W 094°60'2 4.0
2017-Dec-08 04:30N 29°43' W 095°01'4 6.5
2017-Dec-08 03:54N 29°45' W 095°04'1 3.5
2017-Dec-08 03:29N 29°47' W 095°04'0 0.0
2017-Dec-08 02:59N 29°47' W 095°04'0 0.0
2017-Dec-08 01:22N 29°47' W 095°04'0 0.0
2017-Dec-08 00:58N 29°47' W 095°04'0 0.0
2017-Dec-07 23:37N 29°47' W 095°04'0 0.6
2017-Dec-07 22:53N 29°47' W 095°04'1 2.1
2017-Dec-07 22:28N 29°47' W 095°05'2 2.5
2017-Dec-07 21:47N 29°46' W 095°06'1 3.4
2017-Dec-07 21:30N 29°46' W 095°05'2 3.2
2017-Dec-07 20:54N 29°47' W 095°04'1 1.4
2017-Dec-07 20:30N 29°47' W 095°05'1 1.9
2017-Dec-07 20:00N 29°46' W 095°05'1 2.0
2017-Dec-07 19:26N 29°47' W 095°05'1 2.5
2017-Dec-07 18:58N 29°46' W 095°05'1 0.7
2017-Dec-07 17:52N 29°46' W 095°06'1 2.2
2017-Dec-07 17:30N 29°46' W 095°05'1 2.0
2017-Dec-07 16:57N 29°47' W 095°05'2 2.9
2017-Dec-07 16:24N 29°45' W 095°04'2 4.8
2017-Dec-07 16:01N 29°44' W 095°03'2 4.2
2017-Dec-07 15:29N 29°42' W 095°01'2 4.8
2017-Dec-07 15:00N 29°41' W 094°59'3 5.2
2017-Dec-07 14:30N 29°38' W 094°58'3 5.3
2017-Dec-07 14:01N 29°36' W 094°57'2 5.0
2017-Dec-07 13:31N 29°34' W 094°55'2 4.9
2017-Dec-07 13:01N 29°32' W 094°54'2 4.8
2017-Dec-07 12:30N 29°30' W 094°52'3 4.9
2017-Dec-07 11:52N 29°27' W 094°50'2 4.7
2017-Dec-07 11:22N 29°25' W 094°49'  

Dump ship's entire track history